Point Lay, AK

12:18 AM AKST on February 25, 2017 (GMT -0900)
Point Lay | | Change Station
Active Advisory: Blizzard Watch

Elev 23 ft 69.73 °N, 163.01 °W | Updated 22 minutes ago

Overcast
Overcast
-7 °F
Feels Like -31 °F
N
20
Wind Variable Wind from NE

Today
High -- | Low -- °F
--% Chance of Precip.
Yesterday
High -- | Low -- °F
Precip. -- in
Pressure 30.29 in
Visibility 4.0 miles
Clouds Overcast 7500 ft
Windchill -31 °F
Dew Point -12 °F
Humidity 79%
Rainfall 0.00 in
Snow Depth Not available.
9:33 AM 6:37 PM
Waning Crescent, 2% visible
METAR PPIZ 250856Z AUTO 04017KT 4SM -SN OVC075 M22/M24 A3028 RMK AO2 SNB21 SLP256 P0000 60000 T12171244 411891228 51027 FZRANO TSNO
Pressure 30.29 in
Visibility 4.0 miles
Clouds Overcast 7500 ft
Windchill -31 °F
Dew Point -12 °F
Humidity 79%
Rainfall 0.00 in
Snow Depth Not available.
9:33 AM 6:37 PM
Waning Crescent, 2% visible
METAR PPIZ 250856Z AUTO 04017KT 4SM -SN OVC075 M22/M24 A3028 RMK AO2 SNB21 SLP256 P0000 60000 T12171244 411891228 51027 FZRANO TSNO

Get Your Daily Forecast Email!

Thanks for signing up!

Be on the lookout for a verification email in your inbox.

You'll start receiving the daily forecast at 8 AM.

×

10-Day Weather Forecast

Almanac

Astronomy

Feb. 25, 2017 Rise Set
Actual Time
Civil Twilight
Nautical Twilight
Astronomical Twilight
Moon
Length of Visible Light
Length of Day
Tomorrow will be .
, % of the Moon is Illuminated

Today's Extremes

State Highs State Lows

Community

WunderPhotos

Upload Photos

1,962,540 photos uploaded!

WunderBlog® & News

Nearby

Air Quality

  Air Quality AQ Index Pollutant
Not available.

Snow Depth

Station Depth Elevation

Earthquake Activity

City Distance Mag. Time & Date
Minimum magnitude displayed is 2.5.

Coastal Water Temperatures

Place Temperature

Stations

Nearby Weather Stations

Station Location Temp. Windchill Dew Point Humidity Wind Precip. Elev Updated Type
                   

Watches & Warnings

Blizzard Watch
Issued: 5:41 PM AKST Feb. 24, 2017 – National Weather Service

... Blizzard watch remains in effect from Saturday afternoon
through Sunday afternoon...

* blowing snow... reducing visibility to near zero at times.

* Winds... east at 20 to 30 mph with gusts to 50 mph.

* Snow... 3 to 7 inches.

* Timing... snow and winds will increase Saturday afternoon with
the strongest winds and the worst visibility are expected
Saturday evening and early Sunday morning. Conditions are
expected to improve late Sunday morning.

* Impacts... visibility will be very poor and snow will
accumulate into drifts. Whiteout conditions may occur. Travel
and outdoor activities will be difficult.

Precautionary/preparedness actions...

A blizzard watch means there is a potential for falling and/or
blowing snow with strong winds and very poor visibilities.